Time;durP1;ratioP1;P1;durP2;ratioP2;P2;SDS_P1;SDS_P2;PMS_P1;PMS_P2;Temp;Humidity;BMP_temperature;BMP_pressure;BME280_temperature;BME280_humidity;BME280_pressure;Samples;Min_cycle;Max_cycle;Signal;HPM_P1;HPM_P2
2021/07/12 00:00:00;;;;;;;4.90;3.40;;;;;;;17.45;72.61;101177.38;5053506;28;20813;-72
2021/07/12 00:02:25;;;;;;;4.20;3.20;;;;;;;17.43;72.94;101176.75;5032162;28;20029;-71
2021/07/12 00:04:51;;;;;;;5.90;3.33;;;;;;;17.43;73.00;101168.09;5051622;28;20025;-71
2021/07/12 00:07:16;;;;;;;5.07;3.00;;;;;;;17.42;72.88;101166.44;5051415;28;20498;-71
2021/07/12 00:09:42;;;;;;;4.78;3.17;;;;;;;17.41;72.80;101167.47;5036390;28;20090;-72
2021/07/12 00:12:07;;;;;;;4.32;3.13;;;;;;;17.40;72.87;101163.22;5066364;28;20032;-71
2021/07/12 00:14:33;;;;;;;5.13;3.05;;;;;;;17.39;73.07;101166.84;5059651;28;20033;-71
2021/07/12 00:16:59;;;;;;;5.97;3.33;;;;;;;17.37;73.04;101164.41;5041291;28;20040;-71
2021/07/12 00:19:24;;;;;;;10.55;5.07;;;;;;;17.37;72.92;101155.75;5037844;28;20033;-71
2021/07/12 00:21:50;;;;;;;7.10;4.18;;;;;;;17.34;72.98;101151.69;5043892;28;20036;-71
2021/07/12 00:24:19;;;;;;;4.82;2.88;;;;;;;17.31;73.16;101158.13;5053380;28;20534;-71
2021/07/12 00:26:46;;;;;;;4.47;3.00;;;;;;;17.27;73.27;101156.91;5034383;28;20391;-71
2021/07/12 00:29:12;;;;;;;6.45;3.42;;;;;;;17.23;73.51;101152.22;5050263;28;20108;-72
2021/07/12 00:31:38;;;;;;;4.78;3.38;;;;;;;17.19;73.52;101157.03;5050179;28;20490;-71
2021/07/12 00:34:03;;;;;;;5.68;3.63;;;;;;;17.19;73.32;101151.78;5032890;28;20387;-71
2021/07/12 00:36:29;;;;;;;6.40;3.70;;;;;;;17.19;73.28;101145.75;5054716;28;20044;-72
2021/07/12 00:38:56;;;;;;;6.07;3.50;;;;;;;17.17;73.26;101143.31;5033406;28;20068;-71
2021/07/12 00:41:21;;;;;;;4.07;3.17;;;;;;;17.12;73.66;101148.31;5036841;28;20384;-71
2021/07/12 00:43:48;;;;;;;4.80;3.30;;;;;;;17.07;73.84;101150.72;5016450;28;20030;-71
2021/07/12 00:46:13;;;;;;;6.15;3.10;;;;;;;17.00;74.13;101140.16;5027012;28;20043;-71
2021/07/12 00:48:39;;;;;;;5.32;3.45;;;;;;;16.87;74.78;101142.69;5058963;28;20383;-71
2021/07/12 00:51:07;;;;;;;5.68;3.65;;;;;;;16.75;74.74;101142.38;5034821;28;20505;-72
2021/07/12 00:53:32;;;;;;;5.07;3.50;;;;;;;16.69;75.25;101135.28;5044344;28;20032;-71
2021/07/12 00:55:59;;;;;;;8.30;3.63;;;;;;;16.63;75.42;101138.63;5057824;28;20029;-71
2021/07/12 00:58:27;;;;;;;4.75;3.58;;;;;;;16.57;75.59;101142.00;5032170;28;20032;-71
2021/07/12 01:00:59;;;;;;;4.70;3.22;;;;;;;16.52;75.80;101127.66;5049749;28;20029;-71
2021/07/12 01:03:27;;;;;;;5.05;2.83;;;;;;;16.50;75.82;101127.03;5041922;28;20124;-71
2021/07/12 01:05:56;;;;;;;3.40;2.63;;;;;;;16.52;76.00;101129.47;5036079;28;20028;-72
2021/07/12 01:08:24;;;;;;;7.35;3.63;;;;;;;16.53;76.00;101124.03;5032729;28;20025;-71
2021/07/12 01:11:32;;;;;;;5.00;3.38;;;;;;;16.59;75.77;101130.31;5048053;28;20047;-71
2021/07/12 01:14:04;;;;;;;8.02;3.78;;;;;;;16.60;75.51;101115.44;5049517;28;20182;-72
2021/07/12 01:16:49;;;;;;;6.00;3.22;;;;;;;16.60;75.27;101113.63;5048171;28;20041;-71
2021/07/12 01:19:50;;;;;;;7.15;2.97;;;;;;;16.52;75.79;101117.19;5058127;28;20033;-71
2021/07/12 01:22:41;;;;;;;5.22;3.50;;;;;;;16.42;76.18;101119.28;5055907;28;20077;-72
2021/07/12 01:25:34;;;;;;;4.22;3.20;;;;;;;16.31;76.66;101112.78;5041899;28;20033;-71
2021/07/12 01:28:15;;;;;;;4.45;3.22;;;;;;;16.27;76.73;101113.31;5046105;28;20040;-71
2021/07/12 01:31:04;;;;;;;5.45;3.25;;;;;;;16.22;76.68;101106.03;5025604;28;20129;-71
2021/07/12 01:33:46;;;;;;;4.50;3.13;;;;;;;16.22;76.85;101099.97;5027602;28;20040;-71
2021/07/12 01:36:20;;;;;;;8.00;3.78;;;;;;;16.22;76.69;101100.78;5051175;28;20695;-70
2021/07/12 01:39:07;;;;;;;3.50;2.83;;;;;;;16.23;76.59;101099.78;5030644;28;20035;-72
2021/07/12 01:42:08;;;;;;;6.40;3.40;;;;;;;16.24;76.55;101092.75;5047551;28;20438;-71
2021/07/12 01:44:47;;;;;;;6.35;3.63;;;;;;;16.26;76.08;101091.56;5015630;28;20068;-71
2021/07/12 01:47:51;;;;;;;4.30;3.38;;;;;;;16.28;75.99;101094.81;5035060;28;20037;-71
2021/07/12 01:50:27;;;;;;;5.45;3.10;;;;;;;16.27;76.02;101085.31;5030195;28;20028;-71
2021/07/12 01:53:07;;;;;;;6.97;3.92;;;;;;;16.24;76.53;101084.91;5055290;28;20036;-71
2021/07/12 01:55:53;;;;;;;9.20;3.67;;;;;;;16.21;76.67;101083.47;5034475;28;20082;-71
2021/07/12 01:58:31;;;;;;;6.20;3.45;;;;;;;16.22;76.43;101092.13;5052031;28;20025;-71
2021/07/12 02:00:59;;;;;;;4.15;3.40;;;;;;;16.23;76.41;101085.91;5034939;28;20162;-71
2021/07/12 02:03:28;;;;;;;5.57;3.58;;;;;;;16.23;76.24;101089.31;5034365;28;20227;-71
2021/07/12 02:05:59;;;;;;;7.20;3.67;;;;;;;16.23;76.34;101091.13;5034814;28;20131;-71
2021/07/12 02:08:26;;;;;;;5.53;3.97;;;;;;;16.22;76.47;101092.13;5037465;28;20037;-72
2021/07/12 02:10:54;;;;;;;6.18;3.33;;;;;;;16.14;76.78;101091.25;5034066;28;20384;-71
2021/07/12 02:13:24;;;;;;;8.93;4.18;;;;;;;16.06;77.04;101088.75;5056002;28;20067;-72
2021/07/12 02:16:00;;;;;;;10.60;3.53;;;;;;;15.94;77.34;101080.56;5036246;28;20032;-71
2021/07/12 02:18:36;;;;;;;5.10;3.10;;;;;;;15.92;77.27;101081.75;5047579;28;20834;-71
2021/07/12 02:21:20;;;;;;;7.05;3.63;;;;;;;15.89;77.43;101079.50;5025213;28;20055;-71
2021/07/12 02:23:49;;;;;;;8.38;3.30;;;;;;;15.87;77.53;101076.28;5038368;28;20337;-72
2021/07/12 02:26:18;;;;;;;5.65;3.85;;;;;;;15.84;77.55;101076.63;5030518;28;20025;-71
2021/07/12 02:28:46;;;;;;;4.88;3.30;;;;;;;15.82;77.46;101083.84;5030117;28;20522;-71
2021/07/12 02:31:14;;;;;;;6.65;4.00;;;;;;;15.82;77.53;101082.03;5019150;28;20029;-71
2021/07/12 02:33:41;;;;;;;6.20;3.78;;;;;;;15.84;77.47;101076.63;5042076;28;20367;-72
2021/07/12 02:36:08;;;;;;;6.60;4.15;;;;;;;15.86;77.32;101074.63;5030522;28;20025;-71
2021/07/12 02:38:37;;;;;;;4.90;3.08;;;;;;;15.87;77.16;101077.06;5030980;28;20040;-71
2021/07/12 02:41:04;;;;;;;8.65;3.85;;;;;;;15.86;77.02;101085.09;5032501;28;20067;-71
2021/07/12 02:43:32;;;;;;;5.50;3.80;;;;;;;15.79;77.31;101079.81;5016989;28;20036;-71
2021/07/12 02:45:58;;;;;;;5.55;3.97;;;;;;;15.75;77.64;101078.56;5015753;28;20059;-71
2021/07/12 02:48:28;;;;;;;9.23;4.57;;;;;;;15.71;77.53;101069.44;5032741;28;20033;-71
2021/07/12 02:50:57;;;;;;;10.30;3.90;;;;;;;15.69;77.78;101069.59;5035087;28;20128;-71
2021/07/12 02:53:29;;;;;;;5.00;4.03;;;;;;;15.65;78.00;101065.75;5044436;28;20430;-73
2021/07/12 02:55:56;;;;;;;13.70;5.05;;;;;;;15.67;77.88;101068.97;5030756;28;20044;-71
2021/07/12 02:58:22;;;;;;;6.90;4.20;;;;;;;15.64;78.09;101073.75;5036977;28;20059;-70
2021/07/12 03:00:48;;;;;;;5.40;3.88;;;;;;;15.63;78.02;101072.13;5033592;28;20035;-71
2021/07/12 03:03:15;;;;;;;15.10;4.63;;;;;;;15.65;77.98;101063.13;5032378;28;20037;-71
2021/07/12 03:05:42;;;;;;;12.18;6.07;;;;;;;15.63;78.69;101059.06;5014590;28;20071;-71
2021/07/12 03:08:19;;;;;;;8.82;6.05;;;;;;;15.61;78.82;101053.22;5050868;28;20020;-70
2021/07/12 03:10:52;;;;;;;6.93;5.00;;;;;;;15.50;79.51;101052.69;5065127;28;20038;-72
2021/07/12 03:13:29;;;;;;;8.35;4.93;;;;;;;15.48;79.51;101054.69;5053910;28;20036;-72
2021/07/12 03:15:56;;;;;;;8.23;4.80;;;;;;;15.47;79.41;101049.63;5026706;28;20033;-71
2021/07/12 03:18:30;;;;;;;10.07;5.05;;;;;;;15.47;79.21;101047.03;5032912;28;20051;-72
2021/07/12 03:21:01;;;;;;;7.13;4.50;;;;;;;15.47;78.95;101055.66;5039204;28;20036;-72
2021/07/12 03:23:34;;;;;;;9.93;4.80;;;;;;;15.51;78.86;101061.34;5046557;28;20032;-71
2021/07/12 03:26:04;;;;;;;12.85;5.28;;;;;;;15.53;78.74;101049.69;5033033;28;20021;-71
2021/07/12 03:28:31;;;;;;;8.38;5.18;;;;;;;15.55;78.45;101050.31;5029109;28;20025;-71
2021/07/12 03:31:00;;;;;;;6.97;4.72;;;;;;;15.57;78.33;101048.34;5032887;28;20029;-71
2021/07/12 03:33:27;;;;;;;8.45;4.75;;;;;;;15.58;78.19;101046.56;5033521;28;20029;-71
2021/07/12 03:35:56;;;;;;;8.88;5.93;;;;;;;15.57;78.32;101039.69;5047159;28;20120;-71
2021/07/12 03:38:23;;;;;;;5.95;4.07;;;;;;;15.52;78.57;101039.44;5033987;28;20033;-72
2021/07/12 03:40:50;;;;;;;15.43;7.32;;;;;;;15.52;78.71;101042.88;5033570;28;20033;-71
2021/07/12 03:43:21;;;;;;;9.18;5.90;;;;;;;15.48;79.41;101031.16;5032547;28;20491;-71
2021/07/12 03:45:56;;;;;;;8.95;5.65;;;;;;;15.41;79.63;101027.66;5052660;28;20157;-71
2021/07/12 03:48:42;;;;;;;11.63;6.63;;;;;;;15.36;79.80;101020.34;5028902;28;20136;-71
2021/07/12 03:51:19;;;;;;;11.40;7.55;;;;;;;15.36;80.25;101028.19;5031800;28;20028;-71
2021/07/12 03:53:47;;;;;;;17.20;9.27;;;;;;;15.41;80.67;101025.03;5014781;28;20084;-71
2021/07/12 03:56:13;;;;;;;11.20;6.95;;;;;;;15.33;81.18;101025.13;5031722;28;20052;-71
2021/07/12 03:58:39;;;;;;;10.93;7.25;;;;;;;15.32;81.30;101024.31;5049132;28;20068;-71
2021/07/12 04:01:04;;;;;;;8.55;6.72;;;;;;;15.34;81.23;101024.16;5034743;28;20035;-71
2021/07/12 04:03:30;;;;;;;12.07;6.88;;;;;;;15.38;81.06;101017.56;5028232;28;20044;-71
2021/07/12 04:05:56;;;;;;;14.43;7.63;;;;;;;15.40;80.64;101020.78;5054095;28;20016;-71
2021/07/12 04:08:22;;;;;;;12.27;7.75;;;;;;;15.40;80.97;101018.19;5013629;28;20037;-71
2021/07/12 04:10:48;;;;;;;10.38;7.15;;;;;;;15.40;81.12;101027.84;5055166;28;20509;-71
2021/07/12 04:13:14;;;;;;;10.38;7.53;;;;;;;15.38;81.43;101018.38;5029233;28;20044;-71
2021/07/12 04:15:40;;;;;;;10.63;7.55;;;;;;;15.40;81.37;101020.00;5026526;28;20087;-71
2021/07/12 04:18:06;;;;;;;12.85;9.20;;;;;;;15.45;81.80;101017.66;5029541;28;20276;-70
2021/07/12 04:20:35;;;;;;;18.48;8.93;;;;;;;15.46;81.97;101020.06;5048003;28;20024;-71
2021/07/12 04:23:02;;;;;;;15.75;8.13;;;;;;;15.43;82.37;101024.88;5031247;28;20036;-71
2021/07/12 04:25:28;;;;;;;15.32;9.88;;;;;;;15.62;82.12;101016.44;5019763;28;20028;-71
2021/07/12 04:27:55;;;;;;;20.42;9.75;;;;;;;15.56;82.13;101017.19;5029021;28;20487;-71
2021/07/12 04:30:21;;;;;;;18.38;9.15;;;;;;;15.53;82.34;101020.94;5029390;28;20033;-72
2021/07/12 04:32:46;;;;;;;21.38;10.38;;;;;;;15.63;82.24;101028.50;5028949;28;20457;-71
2021/07/12 04:35:13;;;;;;;23.67;10.20;;;;;;;15.57;82.93;101026.63;5029824;28;20037;-71
2021/07/12 04:37:38;;;;;;;24.77;10.93;;;;;;;15.59;82.93;101032.47;5045552;28;20041;-71
2021/07/12 04:40:05;;;;;;;18.65;10.27;;;;;;;15.55;83.45;101028.63;5030054;28;20086;-72
2021/07/12 04:42:31;;;;;;;20.63;10.93;;;;;;;15.62;83.47;101016.44;5051296;28;20031;-71
2021/07/12 04:44:57;;;;;;;16.45;11.65;;;;;;;15.66;83.28;101015.06;5029634;28;20029;-72
2021/07/12 04:47:23;;;;;;;22.15;11.27;;;;;;;15.66;83.49;101017.69;5052633;28;20444;-72
2021/07/12 04:49:49;;;;;;;22.33;11.48;;;;;;;15.65;83.46;101012.63;5047640;28;20847;-71
2021/07/12 04:52:15;;;;;;;20.42;10.95;;;;;;;15.61;83.80;101012.19;5047926;28;20068;-72
2021/07/12 04:54:40;;;;;;;17.98;11.40;;;;;;;15.72;83.79;101008.31;5032886;28;20024;-73
2021/07/12 04:57:06;;;;;;;21.90;12.15;;;;;;;15.74;83.39;101009.75;5041784;28;20445;-72
2021/07/12 04:59:38;;;;;;;20.92;12.60;;;;;;;15.73;83.58;101010.75;5020377;28;20510;-72
2021/07/12 05:02:05;;;;;;;18.90;11.32;;;;;;;15.75;83.50;101008.78;5035527;28;20033;-71
2021/07/12 05:04:30;;;;;;;21.15;11.85;;;;;;;15.84;83.37;101016.50;5033787;28;20040;-72
2021/07/12 05:06:56;;;;;;;19.02;12.27;;;;;;;15.84;83.52;101012.09;5054527;28;20494;-72
2021/07/12 05:09:21;;;;;;;19.98;13.15;;;;;;;16.06;83.23;101009.47;5050913;28;20087;-72
2021/07/12 05:11:47;;;;;;;17.50;11.43;;;;;;;16.09;83.00;100999.44;5034361;28;20040;-72
2021/07/12 05:14:12;;;;;;;22.95;12.00;;;;;;;16.05;83.18;100994.75;5044911;28;20029;-71
2021/07/12 05:16:39;;;;;;;22.45;13.13;;;;;;;16.19;82.70;100996.50;5025500;28;20060;-72
2021/07/12 05:19:04;;;;;;;28.60;11.38;;;;;;;16.14;83.02;100994.47;5058617;28;20306;-72
2021/07/12 05:21:30;;;;;;;15.98;9.93;;;;;;;16.13;83.37;100990.22;5017620;28;20056;-72
2021/07/12 05:23:56;;;;;;;13.25;9.52;;;;;;;16.19;83.19;100985.25;5053552;28;20385;-72
2021/07/12 05:26:22;;;;;;;17.67;10.27;;;;;;;16.33;82.67;100986.97;5036844;28;20029;-71
2021/07/12 05:28:48;;;;;;;17.50;12.60;;;;;;;16.45;82.12;100984.66;5032054;28;20032;-71
2021/07/12 05:31:13;;;;;;;24.63;11.57;;;;;;;16.54;82.18;100992.16;5031547;28;20212;-72
2021/07/12 05:33:39;;;;;;;17.90;12.05;;;;;;;16.60;82.02;100990.59;5015209;28;20036;-72
2021/07/12 05:36:04;;;;;;;19.70;12.68;;;;;;;16.69;81.87;100989.47;5039245;28;20067;-72
2021/07/12 05:38:30;;;;;;;18.45;10.80;;;;;;;16.81;81.38;100984.47;5054209;28;20094;-71
2021/07/12 05:40:55;;;;;;;18.15;12.23;;;;;;;16.86;80.72;100991.81;5035800;28;20338;-72
2021/07/12 05:43:21;;;;;;;21.15;12.00;;;;;;;17.03;79.70;100995.72;5017093;28;20091;-72
2021/07/12 05:45:47;;;;;;;18.38;11.55;;;;;;;17.05;79.39;100985.06;5055186;28;20021;-72
2021/07/12 05:48:12;;;;;;;19.52;12.25;;;;;;;17.25;79.08;100977.28;5015347;28;20025;-71
2021/07/12 05:50:38;;;;;;;22.15;12.55;;;;;;;17.22;79.37;100981.09;5052349;28;20039;-71
2021/07/12 05:53:04;;;;;;;17.90;11.75;;;;;;;17.39;78.87;100978.94;5019902;28;20114;-72
2021/07/12 05:55:30;;;;;;;21.90;12.18;;;;;;;17.42;78.38;100980.34;5048608;28;20037;-72
2021/07/12 05:57:55;;;;;;;19.90;12.10;;;;;;;17.56;78.29;100978.59;5035329;28;20024;-71
2021/07/12 06:00:21;;;;;;;21.35;11.50;;;;;;;17.61;78.46;100979.63;5034153;28;20029;-72
2021/07/12 06:02:47;;;;;;;16.88;12.38;;;;;;;17.69;77.38;100986.50;5050841;28;20032;-71
2021/07/12 06:05:13;;;;;;;19.13;11.48;;;;;;;17.74;76.93;100980.66;5031422;28;20028;-71
2021/07/12 06:07:39;;;;;;;16.20;11.02;;;;;;;17.90;76.84;100978.47;5040310;28;20025;-71
2021/07/12 06:10:06;;;;;;;20.08;12.98;;;;;;;17.97;76.29;100975.88;5052284;28;20032;-71
2021/07/12 06:12:32;;;;;;;15.68;11.50;;;;;;;18.09;76.17;100971.63;5051486;28;20567;-72
2021/07/12 06:14:57;;;;;;;19.15;12.00;;;;;;;18.06;75.65;100977.31;5018069;28;20037;-70
2021/07/12 06:17:23;;;;;;;19.42;12.45;;;;;;;18.09;76.24;100974.25;5060448;28;20325;-72
2021/07/12 06:19:49;;;;;;;17.70;11.90;;;;;;;18.27;75.91;100972.84;5034528;28;20102;-71
2021/07/12 06:22:14;;;;;;;19.45;12.35;;;;;;;18.37;74.72;100973.25;5052319;28;20474;-72
2021/07/12 06:24:40;;;;;;;15.82;11.77;;;;;;;18.30;75.06;100972.44;5057920;28;20036;-72
2021/07/12 06:27:05;;;;;;;16.50;12.10;;;;;;;18.16;75.26;100966.41;5034777;28;20029;-70
2021/07/12 06:29:31;;;;;;;16.42;11.65;;;;;;;18.23;74.98;100977.72;5052436;28;20029;-71
2021/07/12 06:31:56;;;;;;;19.10;11.85;;;;;;;18.38;75.08;100974.06;5032891;28;20029;-71
2021/07/12 06:34:23;;;;;;;17.10;11.52;;;;;;;18.76;73.63;100970.75;5030490;28;20155;-72
2021/07/12 06:36:49;;;;;;;17.75;10.70;;;;;;;19.05;72.40;100964.25;5051564;28;20476;-71
2021/07/12 06:39:16;;;;;;;20.42;11.65;;;;;;;19.28;71.46;100963.75;5050351;28;20295;-71
2021/07/12 06:41:41;;;;;;;14.48;10.77;;;;;;;19.51;70.54;100957.94;5032858;28;20032;-72
2021/07/12 06:44:07;;;;;;;19.83;10.82;;;;;;;19.88;68.90;100952.09;5056237;28;20415;-71
2021/07/12 06:46:42;;;;;;;17.98;10.50;;;;;;;20.26;68.55;100951.16;5016174;28;20368;-72
2021/07/12 06:49:07;;;;;;;14.77;10.20;;;;;;;20.58;68.26;100951.88;5018684;28;20032;-72
2021/07/12 06:51:33;;;;;;;14.15;10.02;;;;;;;21.04;66.47;100947.13;5054531;28;20020;-71
2021/07/12 06:54:00;;;;;;;17.38;10.63;;;;;;;21.35;65.06;100939.00;5034888;28;20446;-71
2021/07/12 06:56:26;;;;;;;12.13;9.70;;;;;;;21.35;64.55;100943.47;5026448;28;20297;-71
2021/07/12 06:58:52;;;;;;;19.13;12.93;;;;;;;21.23;63.93;100937.34;5031923;28;20032;-71
2021/07/12 07:01:18;;;;;;;15.70;10.25;;;;;;;21.51;63.27;100937.63;5029242;28;20040;-72
2021/07/12 07:03:44;;;;;;;11.95;10.15;;;;;;;22.05;63.52;100939.41;5033322;28;20434;-72
2021/07/12 07:06:10;;;;;;;15.15;10.95;;;;;;;22.15;62.12;100937.81;5031133;28;20037;-73
2021/07/12 07:08:36;;;;;;;14.38;10.40;;;;;;;22.31;60.68;100940.81;5049029;28;20108;-72
2021/07/12 07:11:02;;;;;;;16.05;10.60;;;;;;;22.43;60.45;100946.09;5049368;28;20102;-71
2021/07/12 07:13:28;;;;;;;15.82;10.32;;;;;;;22.97;59.59;100945.88;5021133;28;20132;-72
2021/07/12 07:16:04;;;;;;;15.18;10.65;;;;;;;23.26;58.58;100941.41;5046837;28;20029;-71
2021/07/12 07:18:30;;;;;;;15.85;11.60;;;;;;;23.36;57.15;100941.63;5034222;28;20036;-72
2021/07/12 07:20:56;;;;;;;18.42;12.18;;;;;;;23.31;57.98;100936.22;5018818;28;20491;-72
2021/07/12 07:23:24;;;;;;;15.30;11.35;;;;;;;23.33;57.66;100934.94;5045497;28;20108;-73
2021/07/12 07:25:50;;;;;;;14.65;10.57;;;;;;;23.53;57.33;100931.06;5031033;28;20033;-73
2021/07/12 07:28:16;;;;;;;14.43;9.25;;;;;;;23.96;55.58;100931.47;5029852;28;20063;-73
2021/07/12 07:30:41;;;;;;;13.98;9.13;;;;;;;23.96;55.67;100931.47;5029322;28;20488;-71
2021/07/12 07:33:07;;;;;;;13.15;8.18;;;;;;;24.01;56.82;100927.06;5025447;28;20033;-74
2021/07/12 07:35:33;;;;;;;11.55;7.75;;;;;;;23.94;55.76;100918.50;5045088;28;20476;-74
2021/07/12 07:37:58;;;;;;;11.43;7.97;;;;;;;23.60;56.29;100918.47;5029004;28;20060;-73
2021/07/12 07:40:24;;;;;;;11.35;7.75;;;;;;;23.84;55.67;100923.63;5045971;28;20036;-72
2021/07/12 07:42:50;;;;;;;13.00;8.05;;;;;;;23.75;55.82;100914.44;5048188;28;20028;-72
2021/07/12 07:45:16;;;;;;;13.68;8.80;;;;;;;24.01;54.61;100913.03;5030096;28;20029;-72
2021/07/12 07:47:43;;;;;;;13.38;7.63;;;;;;;23.78;55.74;100900.75;5030916;28;20035;-72
2021/07/12 07:50:11;;;;;;;9.63;7.47;;;;;;;23.88;55.81;100900.91;5051845;28;20068;-72
2021/07/12 07:52:36;;;;;;;14.07;7.75;;;;;;;24.43;54.76;100905.41;5030212;28;20029;-73
2021/07/12 07:55:05;;;;;;;11.52;8.48;;;;;;;24.60;53.12;100896.59;5046742;28;20507;-72
2021/07/12 07:57:31;;;;;;;11.88;7.82;;;;;;;24.88;54.53;100903.53;5033799;28;20365;-74
2021/07/12 07:59:56;;;;;;;9.35;7.55;;;;;;;25.23;53.04;100897.03;5028597;28;20071;-72
2021/07/12 08:02:22;;;;;;;12.00;6.68;;;;;;;25.74;51.08;100894.78;5030709;28;20024;-72
2021/07/12 08:04:47;;;;;;;9.93;7.75;;;;;;;26.12;51.46;100882.28;5055600;28;20438;-72
2021/07/12 08:07:13;;;;;;;7.90;6.35;;;;;;;26.35;49.29;100880.28;5032696;28;20028;-72
2021/07/12 08:09:38;;;;;;;7.70;5.80;;;;;;;26.41;49.28;100884.56;5050249;28;20383;-72
2021/07/12 08:12:04;;;;;;;9.70;6.00;;;;;;;26.52;48.77;100880.88;5026389;28;20024;-72
2021/07/12 08:14:30;;;;;;;7.75;6.25;;;;;;;26.84;47.83;100863.97;5053298;28;20024;-73
2021/07/12 08:16:55;;;;;;;8.00;5.85;;;;;;;27.32;47.58;100856.59;5036880;28;20459;-72
2021/07/12 08:19:21;;;;;;;6.63;5.25;;;;;;;27.06;46.54;100866.41;5051679;28;20031;-72
2021/07/12 08:21:47;;;;;;;8.73;4.97;;;;;;;27.13;46.56;100858.16;5013404;28;20491;-73
2021/07/12 08:24:12;;;;;;;6.38;5.65;;;;;;;27.32;45.88;100859.25;5029891;28;20036;-72
2021/07/12 08:26:38;;;;;;;8.20;5.30;;;;;;;27.16;45.59;100857.63;5048591;28;20033;-72
2021/07/12 08:29:04;;;;;;;6.20;4.40;;;;;;;27.39;46.16;100856.34;5037946;28;20033;-72
2021/07/12 08:31:30;;;;;;;9.07;5.60;;;;;;;27.80;45.21;100852.81;5031410;28;20446;-73
2021/07/12 08:33:56;;;;;;;8.73;5.05;;;;;;;28.21;45.59;100845.50;5048627;28;20028;-74
2021/07/12 08:36:23;;;;;;;7.85;4.72;;;;;;;27.35;44.46;100842.75;5049584;28;20112;-72
2021/07/12 08:38:49;;;;;;;6.72;4.30;;;;;;;27.24;44.47;100845.63;5050664;28;20032;-74
2021/07/12 08:41:16;;;;;;;7.03;4.50;;;;;;;27.55;44.08;100838.47;5049616;28;20116;-74
2021/07/12 08:43:41;;;;;;;6.00;4.22;;;;;;;27.80;44.78;100832.28;5019366;28;20036;-73
2021/07/12 08:46:07;;;;;;;9.73;5.15;;;;;;;27.56;45.71;100832.09;5016621;28;20021;-75
2021/07/12 08:48:33;;;;;;;8.63;4.13;;;;;;;28.03;43.88;100820.28;5048373;28;20575;-73
2021/07/12 08:50:58;;;;;;;4.72;4.00;;;;;;;28.08;43.75;100817.56;5045702;28;20067;-73
2021/07/12 08:53:24;;;;;;;5.78;4.43;;;;;;;28.13;42.42;100822.09;5031969;28;20032;-72
2021/07/12 08:55:50;;;;;;;5.57;4.20;;;;;;;27.97;44.05;100813.34;5019930;28;20032;-73
2021/07/12 08:58:23;;;;;;;4.78;4.18;;;;;;;28.21;41.96;100810.84;5043899;28;20132;-72
2021/07/12 09:01:09;;;;;;;5.85;4.75;;;;;;;28.19;42.87;100810.31;5019718;28;20032;-73
2021/07/12 09:03:36;;;;;;;4.65;4.10;;;;;;;27.88;43.04;100812.31;5020189;28;20108;-73
2021/07/12 09:06:13;;;;;;;4.40;3.40;;;;;;;28.28;43.32;100807.91;5043192;28;20024;-73
2021/07/12 09:08:48;;;;;;;4.93;3.03;;;;;;;28.58;42.35;100804.28;5019417;28;20487;-73
2021/07/12 09:11:28;;;;;;;4.70;3.05;;;;;;;28.46;41.47;100803.78;5025837;28;20048;-73
2021/07/12 09:14:11;;;;;;;4.80;3.67;;;;;;;28.66;43.19;100809.03;5061156;28;20426;-74
2021/07/12 09:16:51;;;;;;;4.45;3.58;;;;;;;28.68;42.05;100792.75;5028937;28;20465;-73
2021/07/12 09:19:29;;;;;;;6.72;3.97;;;;;;;28.43;43.00;100802.47;5036347;28;20041;-73
2021/07/12 09:21:59;;;;;;;3.42;3.13;;;;;;;28.83;40.82;100802.50;5051675;28;20028;-73
2021/07/12 09:24:29;;;;;;;8.20;4.00;;;;;;;28.90;39.33;100795.78;5057901;28;20040;-72
2021/07/12 09:27:04;;;;;;;3.85;3.08;;;;;;;28.57;39.96;100797.34;5036661;28;20040;-73
2021/07/12 09:29:43;;;;;;;3.53;2.70;;;;;;;28.57;39.70;100796.56;5052520;28;20025;-73
2021/07/12 09:32:12;;;;;;;4.95;3.70;;;;;;;28.77;40.00;100791.09;5038215;28;20037;-72
2021/07/12 09:34:38;;;;;;;5.97;3.47;;;;;;;28.31;41.83;100791.34;5031329;28;21516;-73
2021/07/12 09:37:05;;;;;;;5.43;3.30;;;;;;;28.33;40.17;100783.84;5029581;28;20026;-72
2021/07/12 09:39:41;;;;;;;4.30;3.30;;;;;;;28.44;39.60;100785.38;5032294;28;20029;-72
2021/07/12 09:42:12;;;;;;;7.82;3.85;;;;;;;28.22;41.58;100788.47;5050315;28;20072;-73
2021/07/12 09:44:42;;;;;;;12.45;3.33;;;;;;;28.75;40.52;100789.78;5032130;28;20041;-72
2021/07/12 09:47:11;;;;;;;4.97;3.03;;;;;;;28.87;37.88;100787.53;5049427;28;20025;-71
2021/07/12 09:49:37;;;;;;;5.40;3.35;;;;;;;28.68;39.25;100776.75;5048894;28;20227;-71
2021/07/12 09:52:06;;;;;;;7.90;3.90;;;;;;;28.71;40.14;100777.00;5036039;28;20045;-72
2021/07/12 09:54:35;;;;;;;5.45;3.30;;;;;;;28.90;38.59;100785.09;5044144;28;20407;-72
2021/07/12 09:57:07;;;;;;;4.50;3.33;;;;;;;28.69;39.87;100778.34;5031070;28;20036;-72
2021/07/12 09:59:34;;;;;;;2.97;2.53;;;;;;;28.64;36.88;100781.03;5042926;28;20446;-72
2021/07/12 10:02:00;;;;;;;4.00;2.33;;;;;;;28.53;38.50;100775.75;5054223;28;20167;-74
2021/07/12 10:04:26;;;;;;;4.32;3.55;;;;;;;28.30;37.29;100768.44;5023109;28;20079;-71
2021/07/12 10:06:53;;;;;;;4.32;3.00;;;;;;;28.38;38.81;100770.50;5053067;28;20028;-71
2021/07/12 10:09:22;;;;;;;3.45;2.60;;;;;;;28.19;39.99;100775.69;5054955;28;20043;-73
2021/07/12 10:11:55;;;;;;;4.78;3.28;;;;;;;28.11;39.06;100762.94;5057814;28;20029;-72
2021/07/12 10:14:23;;;;;;;4.63;2.75;;;;;;;28.10;39.75;100761.34;5038061;28;20025;-74
2021/07/12 10:16:50;;;;;;;3.30;2.70;;;;;;;28.12;40.15;100752.00;5033086;28;20035;-73
2021/07/12 10:19:16;;;;;;;5.80;2.60;;;;;;;28.32;40.33;100764.41;5059780;28;20037;-74
2021/07/12 10:21:50;;;;;;;3.80;2.55;;;;;;;28.65;38.67;100761.28;5015568;28;20086;-73
2021/07/12 10:24:19;;;;;;;6.82;2.70;;;;;;;28.80;37.58;100753.19;5049234;28;20035;-73
2021/07/12 10:26:46;;;;;;;2.83;2.53;;;;;;;28.90;36.98;100749.63;5028043;28;20115;-73
2021/07/12 10:29:15;;;;;;;2.30;2.10;;;;;;;28.95;36.76;100743.44;5049300;28;20040;-73
2021/07/12 10:31:58;;;;;;;4.00;2.20;;;;;;;28.98;37.45;100745.56;5050846;28;20033;-73
2021/07/12 10:34:38;;;;;;;3.30;2.50;;;;;;;29.04;38.61;100739.88;5032539;28;20062;-73
2021/07/12 10:37:07;;;;;;;7.88;3.00;;;;;;;28.56;37.01;100733.63;5030159;28;20037;-73
2021/07/12 10:40:06;;;;;;;2.50;2.10;;;;;;;28.29;39.42;100737.50;5040543;28;20399;-73
2021/07/12 10:42:53;;;;;;;3.10;2.33;;;;;;;28.52;39.97;100739.53;5022809;28;20037;-74
2021/07/12 10:45:27;;;;;;;4.90;2.40;;;;;;;28.63;38.25;100745.59;5047742;28;20060;-70
2021/07/12 10:48:01;;;;;;;2.40;2.20;;;;;;;28.06;38.10;100747.75;5016740;28;20095;-72
2021/07/12 10:50:36;;;;;;;3.20;2.58;;;;;;;28.34;38.88;100738.28;5041412;28;20135;-72
2021/07/12 10:53:23;;;;;;;3.70;2.40;;;;;;;28.74;37.56;100738.28;5028408;28;20112;-72
2021/07/12 10:56:14;;;;;;;2.72;2.33;;;;;;;28.64;37.85;100731.16;5033110;28;20083;-71
2021/07/12 10:58:41;;;;;;;3.00;2.40;;;;;;;28.44;37.83;100740.06;5053735;28;20429;-70
2021/07/12 11:01:10;;;;;;;7.00;2.47;;;;;;;28.25;38.98;100731.13;5053517;28;20398;-70
2021/07/12 11:03:50;;;;;;;2.67;2.25;;;;;;;27.79;40.46;100737.47;5032477;28;20111;-71
2021/07/12 11:06:22;;;;;;;2.00;1.80;;;;;;;27.79;39.93;100740.13;5038280;28;20041;-72
2021/07/12 11:08:54;;;;;;;3.37;2.20;;;;;;;27.99;39.24;100744.63;5036357;28;20060;-71
2021/07/12 11:11:19;;;;;;;;;;;;;;;27.98;38.24;100745.69;5033468;28;20431;-70
2021/07/12 11:13:52;;;;;;;3.20;2.10;;;;;;;27.89;38.86;100753.44;5052305;28;19916;-71
2021/07/12 11:16:20;;;;;;;3.42;2.53;;;;;;;27.75;39.72;100747.09;5030961;28;20475;-71
2021/07/12 11:18:45;;;;;;;2.70;2.25;;;;;;;27.80;40.64;100739.06;5031913;28;20446;-69
2021/07/12 11:21:12;;;;;;;3.45;2.10;;;;;;;27.64;39.13;100746.31;5033304;28;20107;-72
2021/07/12 11:23:44;;;;;;;4.95;2.10;;;;;;;27.76;39.55;100743.34;5034782;28;20048;-70
2021/07/12 11:26:19;;;;;;;4.43;2.50;;;;;;;27.90;39.97;100744.38;5018512;28;20036;-71
2021/07/12 11:28:46;;;;;;;4.82;2.60;;;;;;;27.68;39.05;100741.25;5040495;28;20434;-70